Cochise — WDD8952 — position and weather

sailwx.info

Track history (hours):
 
Tides and Currents Weather Stations Pressure Air Temp Water Temp Dewpoint Dewpoint Depression Visibility Wind Speed Wind Dir Waves Ship Positions

Cochise

Owner: Sause Bros, Coos Bay, OR. More information available from US FCC via Universal Licensing System and Coast Guard Vessel Documentation Center.

Last reported at 2015-Jul-07 06:33 UTC. Time now 2015-Jul-07 06:51 UTC.
Position N 38°20' W 123°33'.

Length 32 m; draft 4.8 m.

Type: Towing. MMSI: 367304990.

Date/timePositionNaut miles runAvg speedWind from/ knotsBaromVisibWave heightAir tempDewpointWater temp
2015-Jul-07 06:33N 38°20' W 123°33'9 8.8
2015-Jul-07 05:33N 38°14' W 123°25'9 8.7
2015-Jul-07 04:33N 38°07' W 123°18'9 9.1
2015-Jul-07 03:33N 38°00' W 123°10'9 9.1
2015-Jul-07 02:33N 37°55' W 123°01'9 9.0
2015-Jul-07 01:33N 37°51' W 122°51'9 8.6
2015-Jul-07 00:33N 37°46' W 122°41'8 8.0
2015-Jul-06 23:33N 37°48' W 122°31'7 6.5
2015-Jul-06 22:33N 37°52' W 122°25'3 3.1
2015-Jul-06 21:34N 37°55' W 122°25'0 0.0
2015-Jul-06 20:33N 37°55' W 122°25'0 0.3
2015-Jul-06 19:33N 37°55' W 122°25'0 0.0
2015-Jul-06 18:33N 37°55' W 122°25'0 0.0
2015-Jul-06 17:33N 37°55' W 122°25'0 0.0
2015-Jul-06 16:33N 37°55' W 122°25'0 0.0
2015-Jul-06 15:33N 37°55' W 122°25'0 0.0
2015-Jul-06 14:33N 37°55' W 122°25'0 0.0
2015-Jul-06 13:33N 37°55' W 122°25'0 0.0
2015-Jul-06 12:33N 37°55' W 122°25'0 0.0
2015-Jul-06 11:33N 37°55' W 122°25'0 0.0
2015-Jul-06 10:33N 37°55' W 122°25'0 0.0
2015-Jul-06 09:30N 37°55' W 122°25'0 0.0
2015-Jul-06 08:27N 37°55' W 122°25'0 0.0
2015-Jul-06 07:33N 37°55' W 122°25'0 0.0
2015-Jul-06 06:33N 37°55' W 122°25'0 0.0
2015-Jul-06 04:24N 37°55' W 122°25'0 0.0
2015-Jul-06 03:33N 37°55' W 122°25'0 0.0
2015-Jul-06 02:30N 37°55' W 122°25'0 0.3
2015-Jul-06 01:29N 37°55' W 122°25'1 0.6
2015-Jul-06 00:31N 37°55' W 122°25'1 0.7
2015-Jul-05 23:32N 37°55' W 122°26'0 0.0
2015-Jul-05 22:32N 37°55' W 122°26'1 1.5
2015-Jul-05 21:34N 37°54' W 122°25'7 7.1
2015-Jul-05 20:34N 37°47' W 122°23'0 0.4
2015-Jul-05 19:34N 37°46' W 122°23'0 0.0
2015-Jul-05 18:33N 37°46' W 122°23'0 0.0
2015-Jul-05 17:33N 37°46' W 122°23'0 0.0
2015-Jul-05 16:33N 37°46' W 122°23'0 0.0
2015-Jul-05 15:33N 37°46' W 122°23'0 0.0
2015-Jul-05 14:33N 37°46' W 122°23'0 0.0
2015-Jul-05 13:33N 37°46' W 122°23'0 0.0
2015-Jul-05 12:33N 37°46' W 122°23'0 0.0
2015-Jul-05 11:33N 37°46' W 122°23'0 0.0
2015-Jul-05 10:33N 37°46' W 122°23'0 0.0
2015-Jul-05 09:33N 37°46' W 122°23'0 0.0
2015-Jul-05 08:33N 37°46' W 122°23'0 0.0
2015-Jul-05 07:33N 37°46' W 122°23'0 0.0
2015-Jul-05 06:33N 37°46' W 122°23'0 0.0
2015-Jul-05 05:33N 37°46' W 122°23'0 0.0
2015-Jul-05 04:33N 37°46' W 122°23'0 0.0
2015-Jul-05 03:33N 37°46' W 122°23'0 0.0
2015-Jul-05 02:33N 37°46' W 122°23'0 0.0
2015-Jul-05 01:33N 37°46' W 122°23'0 0.0
2015-Jul-05 00:33N 37°46' W 122°23'0 0.0
2015-Jul-04 23:33N 37°46' W 122°23'0 0.0
2015-Jul-04 22:33N 37°46' W 122°23'0 0.0
2015-Jul-04 21:33N 37°46' W 122°23'0 0.0
2015-Jul-04 20:33N 37°46' W 122°23'0 0.0
2015-Jul-04 19:33N 37°46' W 122°23'0 0.0
2015-Jul-04 18:30N 37°46' W 122°23'0 0.0
2015-Jul-04 17:33N 37°46' W 122°23'0 0.0
2015-Jul-04 16:33N 37°46' W 122°23'0 0.0
2015-Jul-04 15:33N 37°46' W 122°23'0 0.0
2015-Jul-04 14:33N 37°46' W 122°23'0 0.0
2015-Jul-04 13:33N 37°46' W 122°23'0 0.0
2015-Jul-04 12:33N 37°46' W 122°23'0 0.0
2015-Jul-04 11:30N 37°46' W 122°23'0 0.0
2015-Jul-04 10:33N 37°46' W 122°23'0 0.0
2015-Jul-04 09:33N 37°46' W 122°23'0 0.0
2015-Jul-04 08:33N 37°46' W 122°23'0 0.0
2015-Jul-04 07:33N 37°46' W 122°23'0 0.0
2015-Jul-04 06:33N 37°46' W 122°23'0 0.0
2015-Jul-04 05:33N 37°46' W 122°23'0 0.0
2015-Jul-04 04:27N 37°46' W 122°23'0 0.0
2015-Jul-04 03:21N 37°46' W 122°23'0 0.0
2015-Jul-04 02:33N 37°46' W 122°23'0 0.0
2015-Jul-04 01:33N 37°46' W 122°23'0 0.0
2015-Jul-04 00:33N 37°46' W 122°23'0 0.0
2015-Jul-03 23:33N 37°46' W 122°23'0 0.0
2015-Jul-03 22:33N 37°46' W 122°23'0 0.0
2015-Jul-03 21:33N 37°46' W 122°23'0 0.0
2015-Jul-03 20:33N 37°46' W 122°23'0 0.0
2015-Jul-03 19:33N 37°46' W 122°23'0 0.0
2015-Jul-03 18:33N 37°46' W 122°23'0 0.0
2015-Jul-03 17:33N 37°46' W 122°23'0 0.0
2015-Jul-03 16:33N 37°46' W 122°23'0 0.0
2015-Jul-03 15:33N 37°46' W 122°23'0 0.0
2015-Jul-03 14:33N 37°46' W 122°23'0 0.0
2015-Jul-03 13:33N 37°46' W 122°23'0 0.0
2015-Jul-03 12:33N 37°46' W 122°23'0 0.0
2015-Jul-03 11:33N 37°46' W 122°23'0 0.0
2015-Jul-03 10:33N 37°46' W 122°23'0 0.0
2015-Jul-03 09:33N 37°46' W 122°23'0 0.0
2015-Jul-03 08:33N 37°46' W 122°23'0 0.0
2015-Jul-03 07:33N 37°46' W 122°23'0 0.0
2015-Jul-03 06:33N 37°46' W 122°23'0 0.0
2015-Jul-03 05:33N 37°46' W 122°23'0 0.0
2015-Jul-03 04:33N 37°46' W 122°23'0 0.0
2015-Jul-03 03:33N 37°46' W 122°23'0 0.0
2015-Jul-03 02:33N 37°46' W 122°23'0 0.0
2015-Jul-03 01:27N 37°46' W 122°23'0 0.0
2015-Jul-03 00:33N 37°46' W 122°23'0 0.0
2015-Jul-02 23:33N 37°46' W 122°23'0 0.0
2015-Jul-02 22:33N 37°46' W 122°23'0 0.0
2015-Jul-02 21:33N 37°46' W 122°23'0 0.0
2015-Jul-02 20:33N 37°46' W 122°23'0 0.0
2015-Jul-02 19:33N 37°46' W 122°23'0 0.0
2015-Jul-02 18:33N 37°46' W 122°23'0 0.0
2015-Jul-02 17:33N 37°46' W 122°23'0 0.0
2015-Jul-02 16:33N 37°46' W 122°23'0 0.0
2015-Jul-02 15:33N 37°46' W 122°23'0 0.0
2015-Jul-02 14:30N 37°46' W 122°23'0 0.0
2015-Jul-02 13:33N 37°46' W 122°23'0 0.0
2015-Jul-02 12:33N 37°46' W 122°23'0 0.0
2015-Jul-02 11:33N 37°46' W 122°23'0 0.0
2015-Jul-02 10:33N 37°46' W 122°23'0 0.0
2015-Jul-02 09:30N 37°46' W 122°23'0 0.0
2015-Jul-02 08:33N 37°46' W 122°23'0 0.0
2015-Jul-02 07:33N 37°46' W 122°23'0 0.0
2015-Jul-02 06:33N 37°46' W 122°23'0 0.0
2015-Jul-02 05:33N 37°46' W 122°23'0 0.0
2015-Jul-02 04:33N 37°46' W 122°23'0 0.0
2015-Jul-02 03:33N 37°46' W 122°23'0 0.0
2015-Jul-02 02:33N 37°46' W 122°23'0 0.0
2015-Jul-02 01:33N 37°46' W 122°23'0 0.0
2015-Jul-02 00:33N 37°46' W 122°23'0 0.0
2015-Jul-01 23:33N 37°46' W 122°23'0 0.0
2015-Jul-01 22:33N 37°46' W 122°23'0 0.0
2015-Jul-01 21:33N 37°46' W 122°23'0 0.0
2015-Jul-01 20:33N 37°46' W 122°23'0 0.0
2015-Jul-01 19:33N 37°46' W 122°23'0 0.0
2015-Jul-01 18:30N 37°46' W 122°23'0 0.0
2015-Jul-01 17:33N 37°46' W 122°23'0 0.0
2015-Jul-01 16:33N 37°46' W 122°23'0 0.0
2015-Jul-01 15:33N 37°46' W 122°23'0 0.0
2015-Jul-01 14:33N 37°46' W 122°23'0 0.0
2015-Jul-01 13:33N 37°46' W 122°23'0 0.0
2015-Jul-01 12:33N 37°46' W 122°23'0 0.0
2015-Jul-01 11:33N 37°46' W 122°23'0 0.0
2015-Jul-01 10:33N 37°46' W 122°23'0 0.0
2015-Jul-01 09:30N 37°46' W 122°23'0 0.0
2015-Jul-01 08:33N 37°46' W 122°23'0 0.0
2015-Jul-01 07:33N 37°46' W 122°23'0 0.0
2015-Jul-01 06:33N 37°46' W 122°23'0 0.0
2015-Jul-01 05:33N 37°46' W 122°23'0 0.0
2015-Jul-01 04:33N 37°46' W 122°23'0 0.0
2015-Jul-01 03:33N 37°46' W 122°23'0 0.0
2015-Jul-01 02:33N 37°46' W 122°23'0 0.0
2015-Jul-01 01:33N 37°46' W 122°23'0 0.0
2015-Jul-01 00:33N 37°46' W 122°23'0 0.0
2015-Jun-30 23:33N 37°46' W 122°23'0 0.0
2015-Jun-30 22:33N 37°46' W 122°23'0 0.0
2015-Jun-30 21:33N 37°46' W 122°23'0 0.0
2015-Jun-30 20:33N 37°46' W 122°23'0 0.0
2015-Jun-30 19:33N 37°46' W 122°23'0 0.0
2015-Jun-30 18:33N 37°46' W 122°23'1 0.5
2015-Jun-30 17:33N 37°46' W 122°23'1 0.0
2015-Jun-29 15:33N 37°46' W 122°23'0 0.0
2015-Jun-29 14:33N 37°46' W 122°23'0 0.0
2015-Jun-29 13:33N 37°46' W 122°23'0 0.0
2015-Jun-29 12:33N 37°46' W 122°23'0 0.0
2015-Jun-29 11:33N 37°46' W 122°23'0 0.0
2015-Jun-29 10:33N 37°46' W 122°23'0 0.0
2015-Jun-29 09:33N 37°46' W 122°23'0 0.0
2015-Jun-29 08:33N 37°46' W 122°23'0 0.0
2015-Jun-29 07:33N 37°46' W 122°23'0 0.0
2015-Jun-29 06:33N 37°46' W 122°23'0 0.0
2015-Jun-29 05:33N 37°46' W 122°23'0 0.0
2015-Jun-29 04:33N 37°46' W 122°23'0 0.0
2015-Jun-29 03:33N 37°46' W 122°23'0 0.0
2015-Jun-29 02:33N 37°46' W 122°23'0 0.0
2015-Jun-29 01:33N 37°46' W 122°23'0 0.0
2015-Jun-29 00:33N 37°46' W 122°23'0 0.0
2015-Jun-28 23:33N 37°46' W 122°23'0 0.0
2015-Jun-28 22:33N 37°46' W 122°23'0 0.0
2015-Jun-28 21:33N 37°46' W 122°23'0 0.0
2015-Jun-28 20:33N 37°46' W 122°23'0 0.0
2015-Jun-28 19:33N 37°46' W 122°23'0 0.0
2015-Jun-28 18:33N 37°46' W 122°23'0 0.0
2015-Jun-28 17:33N 37°46' W 122°23'0 0.0
2015-Jun-28 16:33N 37°46' W 122°23'0 0.0
2015-Jun-28 15:33N 37°46' W 122°23'0 0.0
2015-Jun-28 14:33N 37°46' W 122°23'0 0.0
2015-Jun-28 13:33N 37°46' W 122°23'0 0.0
2015-Jun-28 12:33N 37°46' W 122°23'0 0.0
2015-Jun-28 11:33N 37°46' W 122°23'0 0.0
2015-Jun-28 10:33N 37°46' W 122°23'0 0.0
2015-Jun-28 09:33N 37°46' W 122°23'0 0.0
2015-Jun-28 08:33N 37°46' W 122°23'0 0.0
2015-Jun-28 07:33N 37°46' W 122°23'0 0.0
2015-Jun-28 06:33N 37°46' W 122°23'0 0.0
2015-Jun-28 05:33N 37°46' W 122°23'0 0.0
2015-Jun-28 04:33N 37°46' W 122°23'0 0.0
2015-Jun-28 03:33N 37°46' W 122°23'0 0.0
2015-Jun-28 02:33N 37°46' W 122°23'0 0.0
2015-Jun-28 01:33N 37°46' W 122°23'0 0.0
2015-Jun-28 00:33N 37°46' W 122°23'0 0.0
2015-Jun-27 23:33N 37°46' W 122°23'0 0.0
2015-Jun-27 22:33N 37°46' W 122°23'0 0.0
2015-Jun-27 21:33N 37°46' W 122°23'0 0.0
2015-Jun-27 20:33N 37°46' W 122°23'8 8.1
2015-Jun-27 19:33N 37°54' W 122°26'8 7.7
2015-Jun-27 18:33N 38°01' W 122°23'1010.2
2015-Jun-27 17:33N 37°51' W 122°24'5 4.7
2015-Jun-27 16:32N 37°46' W 122°23'0 0.1
2015-Jun-27 15:32N 37°46' W 122°23'0 0.0
2015-Jun-27 14:32N 37°46' W 122°23'0 0.0
2015-Jun-27 13:32N 37°46' W 122°23'0 0.0
2015-Jun-27 12:32N 37°46' W 122°23'0 0.0
2015-Jun-27 11:32N 37°46' W 122°23'0 0.0
2015-Jun-27 10:32N 37°46' W 122°23'0 0.0
2015-Jun-27 09:32N 37°46' W 122°23'0 0.0
2015-Jun-27 08:32N 37°46' W 122°23'0 0.0
2015-Jun-27 07:32N 37°46' W 122°23'  
Track history (hours):
 
Tides and Currents Weather Stations Pressure Air Temp Water Temp Dewpoint Dewpoint Depression Visibility Wind Speed Wind Dir Waves Ship Positions

Cochise

Owner: Sause Bros, Coos Bay, OR. More information available from US FCC via Universal Licensing System and Coast Guard Vessel Documentation Center.

Last reported at 2015-Jul-07 06:33 UTC. Time now 2015-Jul-07 06:51 UTC.
Position N 38°20' W 123°33'.

Length 32 m; draft 4.8 m.

Type: Towing. MMSI: 367304990.

Date/timePositionNaut miles runAvg speedWind from/ knotsBaromVisibWave heightAir tempDewpointWater temp
2015-Jul-07 06:33N 38°20' W 123°33'9 8.8
2015-Jul-07 05:33N 38°14' W 123°25'9 8.7
2015-Jul-07 04:33N 38°07' W 123°18'9 9.1
2015-Jul-07 03:33N 38°00' W 123°10'9 9.1
2015-Jul-07 02:33N 37°55' W 123°01'9 9.0
2015-Jul-07 01:33N 37°51' W 122°51'9 8.6
2015-Jul-07 00:33N 37°46' W 122°41'8 8.0
2015-Jul-06 23:33N 37°48' W 122°31'7 6.5
2015-Jul-06 22:33N 37°52' W 122°25'3 3.1
2015-Jul-06 21:34N 37°55' W 122°25'0 0.0
2015-Jul-06 20:33N 37°55' W 122°25'0 0.3
2015-Jul-06 19:33N 37°55' W 122°25'0 0.0
2015-Jul-06 18:33N 37°55' W 122°25'0 0.0
2015-Jul-06 17:33N 37°55' W 122°25'0 0.0
2015-Jul-06 16:33N 37°55' W 122°25'0 0.0
2015-Jul-06 15:33N 37°55' W 122°25'0 0.0
2015-Jul-06 14:33N 37°55' W 122°25'0 0.0
2015-Jul-06 13:33N 37°55' W 122°25'0 0.0
2015-Jul-06 12:33N 37°55' W 122°25'0 0.0
2015-Jul-06 11:33N 37°55' W 122°25'0 0.0
2015-Jul-06 10:33N 37°55' W 122°25'0 0.0
2015-Jul-06 09:30N 37°55' W 122°25'0 0.0
2015-Jul-06 08:27N 37°55' W 122°25'0 0.0
2015-Jul-06 07:33N 37°55' W 122°25'0 0.0
2015-Jul-06 06:33N 37°55' W 122°25'0 0.0
2015-Jul-06 04:24N 37°55' W 122°25'0 0.0
2015-Jul-06 03:33N 37°55' W 122°25'0 0.0
2015-Jul-06 02:30N 37°55' W 122°25'0 0.3
2015-Jul-06 01:29N 37°55' W 122°25'1 0.6
2015-Jul-06 00:31N 37°55' W 122°25'1 0.7
2015-Jul-05 23:32N 37°55' W 122°26'0 0.0
2015-Jul-05 22:32N 37°55' W 122°26'1 1.5
2015-Jul-05 21:34N 37°54' W 122°25'7 7.1
2015-Jul-05 20:34N 37°47' W 122°23'0 0.4
2015-Jul-05 19:34N 37°46' W 122°23'0 0.0
2015-Jul-05 18:33N 37°46' W 122°23'0 0.0
2015-Jul-05 17:33N 37°46' W 122°23'0 0.0
2015-Jul-05 16:33N 37°46' W 122°23'0 0.0
2015-Jul-05 15:33N 37°46' W 122°23'0 0.0
2015-Jul-05 14:33N 37°46' W 122°23'0 0.0
2015-Jul-05 13:33N 37°46' W 122°23'0 0.0
2015-Jul-05 12:33N 37°46' W 122°23'0 0.0
2015-Jul-05 11:33N 37°46' W 122°23'0 0.0
2015-Jul-05 10:33N 37°46' W 122°23'0 0.0
2015-Jul-05 09:33N 37°46' W 122°23'0 0.0
2015-Jul-05 08:33N 37°46' W 122°23'0 0.0
2015-Jul-05 07:33N 37°46' W 122°23'0 0.0
2015-Jul-05 06:33N 37°46' W 122°23'0 0.0
2015-Jul-05 05:33N 37°46' W 122°23'0 0.0
2015-Jul-05 04:33N 37°46' W 122°23'0 0.0
2015-Jul-05 03:33N 37°46' W 122°23'0 0.0
2015-Jul-05 02:33N 37°46' W 122°23'0 0.0
2015-Jul-05 01:33N 37°46' W 122°23'0 0.0
2015-Jul-05 00:33N 37°46' W 122°23'0 0.0
2015-Jul-04 23:33N 37°46' W 122°23'0 0.0
2015-Jul-04 22:33N 37°46' W 122°23'0 0.0
2015-Jul-04 21:33N 37°46' W 122°23'0 0.0
2015-Jul-04 20:33N 37°46' W 122°23'0 0.0
2015-Jul-04 19:33N 37°46' W 122°23'0 0.0
2015-Jul-04 18:30N 37°46' W 122°23'0 0.0
2015-Jul-04 17:33N 37°46' W 122°23'0 0.0
2015-Jul-04 16:33N 37°46' W 122°23'0 0.0
2015-Jul-04 15:33N 37°46' W 122°23'0 0.0
2015-Jul-04 14:33N 37°46' W 122°23'0 0.0
2015-Jul-04 13:33N 37°46' W 122°23'0 0.0
2015-Jul-04 12:33N 37°46' W 122°23'0 0.0
2015-Jul-04 11:30N 37°46' W 122°23'0 0.0
2015-Jul-04 10:33N 37°46' W 122°23'0 0.0
2015-Jul-04 09:33N 37°46' W 122°23'0 0.0
2015-Jul-04 08:33N 37°46' W 122°23'0 0.0
2015-Jul-04 07:33N 37°46' W 122°23'0 0.0
2015-Jul-04 06:33N 37°46' W 122°23'0 0.0
2015-Jul-04 05:33N 37°46' W 122°23'0 0.0
2015-Jul-04 04:27N 37°46' W 122°23'0 0.0
2015-Jul-04 03:21N 37°46' W 122°23'0 0.0
2015-Jul-04 02:33N 37°46' W 122°23'0 0.0
2015-Jul-04 01:33N 37°46' W 122°23'0 0.0
2015-Jul-04 00:33N 37°46' W 122°23'0 0.0
2015-Jul-03 23:33N 37°46' W 122°23'0 0.0
2015-Jul-03 22:33N 37°46' W 122°23'0 0.0
2015-Jul-03 21:33N 37°46' W 122°23'0 0.0
2015-Jul-03 20:33N 37°46' W 122°23'0 0.0
2015-Jul-03 19:33N 37°46' W 122°23'0 0.0
2015-Jul-03 18:33N 37°46' W 122°23'0 0.0
2015-Jul-03 17:33N 37°46' W 122°23'0 0.0
2015-Jul-03 16:33N 37°46' W 122°23'0 0.0
2015-Jul-03 15:33N 37°46' W 122°23'0 0.0
2015-Jul-03 14:33N 37°46' W 122°23'0 0.0
2015-Jul-03 13:33N 37°46' W 122°23'0 0.0
2015-Jul-03 12:33N 37°46' W 122°23'0 0.0
2015-Jul-03 11:33N 37°46' W 122°23'0 0.0
2015-Jul-03 10:33N 37°46' W 122°23'0 0.0
2015-Jul-03 09:33N 37°46' W 122°23'0 0.0
2015-Jul-03 08:33N 37°46' W 122°23'0 0.0
2015-Jul-03 07:33N 37°46' W 122°23'0 0.0
2015-Jul-03 06:33N 37°46' W 122°23'0 0.0
2015-Jul-03 05:33N 37°46' W 122°23'0 0.0
2015-Jul-03 04:33N 37°46' W 122°23'0 0.0
2015-Jul-03 03:33N 37°46' W 122°23'0 0.0
2015-Jul-03 02:33N 37°46' W 122°23'0 0.0
2015-Jul-03 01:27N 37°46' W 122°23'0 0.0
2015-Jul-03 00:33N 37°46' W 122°23'0 0.0
2015-Jul-02 23:33N 37°46' W 122°23'0 0.0
2015-Jul-02 22:33N 37°46' W 122°23'0 0.0
2015-Jul-02 21:33N 37°46' W 122°23'0 0.0
2015-Jul-02 20:33N 37°46' W 122°23'0 0.0
2015-Jul-02 19:33N 37°46' W 122°23'0 0.0
2015-Jul-02 18:33N 37°46' W 122°23'0 0.0
2015-Jul-02 17:33N 37°46' W 122°23'0 0.0
2015-Jul-02 16:33N 37°46' W 122°23'0 0.0
2015-Jul-02 15:33N 37°46' W 122°23'0 0.0
2015-Jul-02 14:30N 37°46' W 122°23'0 0.0
2015-Jul-02 13:33N 37°46' W 122°23'0 0.0
2015-Jul-02 12:33N 37°46' W 122°23'0 0.0
2015-Jul-02 11:33N 37°46' W 122°23'0 0.0
2015-Jul-02 10:33N 37°46' W 122°23'0 0.0
2015-Jul-02 09:30N 37°46' W 122°23'0 0.0
2015-Jul-02 08:33N 37°46' W 122°23'0 0.0
2015-Jul-02 07:33N 37°46' W 122°23'0 0.0
2015-Jul-02 06:33N 37°46' W 122°23'0 0.0
2015-Jul-02 05:33N 37°46' W 122°23'0 0.0
2015-Jul-02 04:33N 37°46' W 122°23'0 0.0
2015-Jul-02 03:33N 37°46' W 122°23'0 0.0
2015-Jul-02 02:33N 37°46' W 122°23'0 0.0
2015-Jul-02 01:33N 37°46' W 122°23'0 0.0
2015-Jul-02 00:33N 37°46' W 122°23'0 0.0
2015-Jul-01 23:33N 37°46' W 122°23'0 0.0
2015-Jul-01 22:33N 37°46' W 122°23'0 0.0
2015-Jul-01 21:33N 37°46' W 122°23'0 0.0
2015-Jul-01 20:33N 37°46' W 122°23'0 0.0
2015-Jul-01 19:33N 37°46' W 122°23'0 0.0
2015-Jul-01 18:30N 37°46' W 122°23'0 0.0
2015-Jul-01 17:33N 37°46' W 122°23'0 0.0
2015-Jul-01 16:33N 37°46' W 122°23'0 0.0
2015-Jul-01 15:33N 37°46' W 122°23'0 0.0
2015-Jul-01 14:33N 37°46' W 122°23'0 0.0
2015-Jul-01 13:33N 37°46' W 122°23'0 0.0
2015-Jul-01 12:33N 37°46' W 122°23'0 0.0
2015-Jul-01 11:33N 37°46' W 122°23'0 0.0
2015-Jul-01 10:33N 37°46' W 122°23'0 0.0
2015-Jul-01 09:30N 37°46' W 122°23'0 0.0
2015-Jul-01 08:33N 37°46' W 122°23'0 0.0
2015-Jul-01 07:33N 37°46' W 122°23'0 0.0
2015-Jul-01 06:33N 37°46' W 122°23'0 0.0
2015-Jul-01 05:33N 37°46' W 122°23'0 0.0
2015-Jul-01 04:33N 37°46' W 122°23'0 0.0
2015-Jul-01 03:33N 37°46' W 122°23'0 0.0
2015-Jul-01 02:33N 37°46' W 122°23'0 0.0
2015-Jul-01 01:33N 37°46' W 122°23'0 0.0
2015-Jul-01 00:33N 37°46' W 122°23'0 0.0
2015-Jun-30 23:33N 37°46' W 122°23'0 0.0
2015-Jun-30 22:33N 37°46' W 122°23'0 0.0
2015-Jun-30 21:33N 37°46' W 122°23'0 0.0
2015-Jun-30 20:33N 37°46' W 122°23'0 0.0
2015-Jun-30 19:33N 37°46' W 122°23'0 0.0
2015-Jun-30 18:33N 37°46' W 122°23'1 0.5
2015-Jun-30 17:33N 37°46' W 122°23'1 0.0
2015-Jun-29 15:33N 37°46' W 122°23'0 0.0
2015-Jun-29 14:33N 37°46' W 122°23'0 0.0
2015-Jun-29 13:33N 37°46' W 122°23'0 0.0
2015-Jun-29 12:33N 37°46' W 122°23'0 0.0
2015-Jun-29 11:33N 37°46' W 122°23'0 0.0
2015-Jun-29 10:33N 37°46' W 122°23'0 0.0
2015-Jun-29 09:33N 37°46' W 122°23'0 0.0
2015-Jun-29 08:33N 37°46' W 122°23'0 0.0
2015-Jun-29 07:33N 37°46' W 122°23'0 0.0
2015-Jun-29 06:33N 37°46' W 122°23'0 0.0
2015-Jun-29 05:33N 37°46' W 122°23'0 0.0
2015-Jun-29 04:33N 37°46' W 122°23'0 0.0
2015-Jun-29 03:33N 37°46' W 122°23'0 0.0
2015-Jun-29 02:33N 37°46' W 122°23'0 0.0
2015-Jun-29 01:33N 37°46' W 122°23'0 0.0
2015-Jun-29 00:33N 37°46' W 122°23'0 0.0
2015-Jun-28 23:33N 37°46' W 122°23'0 0.0
2015-Jun-28 22:33N 37°46' W 122°23'0 0.0
2015-Jun-28 21:33N 37°46' W 122°23'0 0.0
2015-Jun-28 20:33N 37°46' W 122°23'0 0.0
2015-Jun-28 19:33N 37°46' W 122°23'0 0.0
2015-Jun-28 18:33N 37°46' W 122°23'0 0.0
2015-Jun-28 17:33N 37°46' W 122°23'0 0.0
2015-Jun-28 16:33N 37°46' W 122°23'0 0.0
2015-Jun-28 15:33N 37°46' W 122°23'0 0.0
2015-Jun-28 14:33N 37°46' W 122°23'0 0.0
2015-Jun-28 13:33N 37°46' W 122°23'0 0.0
2015-Jun-28 12:33N 37°46' W 122°23'0 0.0
2015-Jun-28 11:33N 37°46' W 122°23'0 0.0
2015-Jun-28 10:33N 37°46' W 122°23'0 0.0
2015-Jun-28 09:33N 37°46' W 122°23'0 0.0
2015-Jun-28 08:33N 37°46' W 122°23'0 0.0
2015-Jun-28 07:33N 37°46' W 122°23'0 0.0
2015-Jun-28 06:33N 37°46' W 122°23'0 0.0
2015-Jun-28 05:33N 37°46' W 122°23'0 0.0
2015-Jun-28 04:33N 37°46' W 122°23'0 0.0
2015-Jun-28 03:33N 37°46' W 122°23'0 0.0
2015-Jun-28 02:33N 37°46' W 122°23'0 0.0
2015-Jun-28 01:33N 37°46' W 122°23'0 0.0
2015-Jun-28 00:33N 37°46' W 122°23'0 0.0
2015-Jun-27 23:33N 37°46' W 122°23'0 0.0
2015-Jun-27 22:33N 37°46' W 122°23'0 0.0
2015-Jun-27 21:33N 37°46' W 122°23'0 0.0
2015-Jun-27 20:33N 37°46' W 122°23'8 8.1
2015-Jun-27 19:33N 37°54' W 122°26'8 7.7
2015-Jun-27 18:33N 38°01' W 122°23'1010.2
2015-Jun-27 17:33N 37°51' W 122°24'5 4.7
2015-Jun-27 16:32N 37°46' W 122°23'0 0.1
2015-Jun-27 15:32N 37°46' W 122°23'0 0.0
2015-Jun-27 14:32N 37°46' W 122°23'0 0.0
2015-Jun-27 13:32N 37°46' W 122°23'0 0.0
2015-Jun-27 12:32N 37°46' W 122°23'0 0.0
2015-Jun-27 11:32N 37°46' W 122°23'0 0.0
2015-Jun-27 10:32N 37°46' W 122°23'0 0.0
2015-Jun-27 09:32N 37°46' W 122°23'0 0.0
2015-Jun-27 08:32N 37°46' W 122°23'0 0.0
2015-Jun-27 07:32N 37°46' W 122°23'  

Dump ship's entire track history